createdAt,value
2019-04-16T00:00:43.407Z,56.10
2019-04-16T00:01:45.346Z,56.38
2019-04-16T00:02:43.031Z,56.48
2019-04-16T00:03:42.982Z,56.85
2019-04-16T00:04:42.995Z,56.10
2019-04-16T00:05:42.978Z,55.71
2019-04-16T00:06:42.933Z,56.19
2019-04-16T00:07:42.919Z,56.76
2019-04-16T00:08:42.910Z,57.33
2019-04-16T00:09:42.911Z,57.14
2019-04-16T00:10:42.869Z,56.85
2019-04-16T00:11:42.847Z,56.95
2019-04-16T00:12:42.839Z,56.67
2019-04-16T00:13:42.830Z,56.67
2019-04-16T00:14:42.827Z,56.85
2019-04-16T00:15:42.811Z,56.48
2019-04-16T00:16:44.589Z,56.00
2019-04-16T00:17:44.410Z,55.81
2019-04-16T00:18:56.351Z,55.90
2019-04-16T00:19:42.727Z,55.90
2019-04-16T00:20:42.725Z,55.90
2019-04-16T00:21:42.687Z,55.71
2019-04-16T00:22:42.667Z,55.81
2019-04-16T00:23:42.655Z,56.38
2019-04-16T00:24:42.711Z,55.43
2019-04-16T00:25:42.619Z,55.90
2019-04-16T00:26:42.609Z,56.48
2019-04-16T00:27:42.585Z,56.67
2019-04-16T00:28:42.572Z,56.95
2019-04-16T00:29:42.550Z,56.85
2019-04-16T00:30:42.582Z,56.85
2019-04-16T00:31:42.514Z,56.38
2019-04-16T00:32:42.753Z,55.33
2019-04-16T00:33:43.465Z,55.52
2019-04-16T00:34:44.799Z,56.19
2019-04-16T00:35:46.387Z,55.33
2019-04-16T00:36:42.495Z,55.33
2019-04-16T00:37:42.424Z,54.86
2019-04-16T00:38:42.410Z,55.05
2019-04-16T00:39:42.383Z,55.43
2019-04-16T00:40:42.374Z,55.90
2019-04-16T00:41:42.360Z,56.29
2019-04-16T00:42:42.335Z,56.38
2019-04-16T00:43:44.130Z,56.19
2019-04-16T00:44:42.313Z,55.71
2019-04-16T00:45:42.293Z,55.71
2019-04-16T00:46:42.295Z,55.90
2019-04-16T00:47:42.262Z,56.00
2019-04-16T00:48:42.234Z,55.81
2019-04-16T00:49:42.229Z,56.00
2019-04-16T00:50:42.207Z,56.10
2019-04-16T00:51:42.182Z,56.10
2019-04-16T00:52:42.172Z,56.10
2019-04-16T00:53:42.153Z,56.19
2019-04-16T00:54:42.625Z,56.29
2019-04-16T00:55:42.322Z,57.14
2019-04-16T00:56:43.599Z,57.14
2019-04-16T00:57:42.089Z,57.43
2019-04-16T00:58:42.067Z,57.33
2019-04-16T00:59:42.047Z,57.43
2019-04-16T01:00:42.036Z,57.71
2019-04-16T01:01:42.023Z,56.67
2019-04-16T01:02:42.056Z,56.29
2019-04-16T01:03:41.987Z,56.76
2019-04-16T01:04:41.966Z,57.62
2019-04-16T01:05:41.949Z,56.85
2019-04-16T01:06:41.941Z,56.00
2019-04-16T01:07:41.922Z,55.71
2019-04-16T01:08:53.997Z,56.19
2019-04-16T01:09:41.890Z,56.67
2019-04-16T01:10:41.865Z,56.95
2019-04-16T01:11:41.847Z,56.10
2019-04-16T01:12:41.838Z,56.48
2019-04-16T01:13:41.824Z,56.95
2019-04-16T01:14:41.807Z,57.24
2019-04-16T01:15:41.781Z,57.04
2019-04-16T01:16:41.773Z,57.52
2019-04-16T01:17:41.777Z,57.71
2019-04-16T01:18:41.793Z,57.90
2019-04-16T01:19:41.935Z,57.62
2019-04-16T01:20:43.302Z,57.90
2019-04-16T01:21:44.633Z,57.14
2019-04-16T01:22:46.628Z,57.14
2019-04-16T01:23:41.650Z,57.04
2019-04-16T01:24:41.637Z,57.24
2019-04-16T01:25:41.616Z,57.81
2019-04-16T01:26:41.612Z,57.71
2019-04-16T01:27:41.644Z,57.71
2019-04-16T01:28:41.565Z,58.37
2019-04-16T01:29:41.555Z,58.57
2019-04-16T01:30:41.539Z,58.95
2019-04-16T01:31:41.512Z,58.76
2019-04-16T01:32:42.674Z,59.01
2019-04-16T01:33:43.388Z,59.11
2019-04-16T01:34:41.488Z,59.11
2019-04-16T01:35:41.446Z,60.06
2019-04-16T01:36:41.432Z,59.77
2019-04-16T01:37:41.416Z,59.87
2019-04-16T01:38:41.400Z,60.25
2019-04-16T01:39:41.408Z,60.06
2019-04-16T01:40:41.364Z,60.53
2019-04-16T01:41:41.346Z,59.87
2019-04-16T01:42:41.362Z,60.06
2019-04-16T01:43:41.307Z,60.63
2019-04-16T01:44:41.297Z,60.63
2019-04-16T01:45:41.302Z,60.35
2019-04-16T01:46:41.260Z,60.63
2019-04-16T01:47:41.256Z,60.06
2019-04-16T01:48:41.228Z,60.06
2019-04-16T01:49:42.082Z,60.53
2019-04-16T01:50:43.523Z,61.01
2019-04-16T01:51:41.177Z,60.63
2019-04-16T01:52:41.187Z,60.63
2019-04-16T01:53:41.145Z,60.82
2019-04-16T01:54:41.128Z,60.53
2019-04-16T01:55:42.607Z,60.82
2019-04-16T01:56:41.098Z,61.48
2019-04-16T01:57:41.075Z,61.58
2019-04-16T01:58:41.061Z,61.77
2019-04-16T01:59:41.056Z,61.77
2019-04-16T02:00:41.018Z,61.48
2019-04-16T02:01:43.407Z,61.29
2019-04-16T02:02:43.485Z,61.20
2019-04-16T02:03:40.979Z,61.39
2019-04-16T02:04:40.951Z,62.05
2019-04-16T02:05:40.943Z,62.02
2019-04-16T02:06:40.942Z,62.21
2019-04-16T02:07:40.914Z,62.21
2019-04-16T02:08:40.893Z,62.40
2019-04-16T02:09:40.866Z,62.59
2019-04-16T02:10:40.866Z,63.17
2019-04-16T02:11:41.427Z,63.35
2019-04-16T02:12:43.434Z,63.17
2019-04-16T02:13:45.872Z,63.54
2019-04-16T02:14:40.782Z,62.59
2019-04-16T02:15:40.824Z,62.88
2019-04-16T02:16:40.747Z,62.97
2019-04-16T02:17:40.728Z,63.35
2019-04-16T02:18:40.712Z,63.73
2019-04-16T02:19:40.697Z,64.40
2019-04-16T02:20:40.683Z,64.40
2019-04-16T02:21:41.476Z,64.11
2019-04-16T02:22:42.314Z,64.49
2019-04-16T02:23:40.627Z,64.69
2019-04-16T02:24:40.608Z,64.49
2019-04-16T02:25:40.598Z,64.87
2019-04-16T02:26:40.598Z,65.06
2019-04-16T02:27:40.556Z,65.54
2019-04-16T02:28:40.541Z,65.92
2019-04-16T02:29:40.531Z,65.92
2019-04-16T02:30:40.522Z,65.35
2019-04-16T02:31:40.519Z,64.97
2019-04-16T02:32:40.563Z,65.54
2019-04-16T02:33:40.461Z,65.35
2019-04-16T02:34:40.456Z,65.25
2019-04-16T02:35:40.425Z,65.35
2019-04-16T02:36:40.425Z,66.01
2019-04-16T02:37:40.395Z,65.92
2019-04-16T02:38:45.867Z,66.20
2019-04-16T02:39:48.968Z,66.39
2019-04-16T02:40:40.334Z,66.30
2019-04-16T02:41:40.353Z,66.49
2019-04-16T02:42:40.323Z,66.30
2019-04-16T02:43:41.360Z,66.11
2019-04-16T02:44:40.263Z,65.35
2019-04-16T02:45:40.250Z,65.35
2019-04-16T02:46:40.265Z,65.60
2019-04-16T02:47:42.102Z,65.98
2019-04-16T02:48:40.205Z,65.69
2019-04-16T02:49:40.175Z,65.79
2019-04-16T02:50:40.153Z,65.88
2019-04-16T02:51:41.653Z,65.88
2019-04-16T02:52:40.153Z,66.83
2019-04-16T02:53:40.112Z,66.93
2019-04-16T02:54:40.103Z,66.55
2019-04-16T02:55:43.925Z,66.55
2019-04-16T02:56:40.052Z,66.36
2019-04-16T02:57:40.067Z,66.27
2019-04-16T02:58:40.035Z,66.46
2019-04-16T02:59:45.766Z,66.93
2019-04-16T03:00:39.979Z,67.31
2019-04-16T03:01:39.965Z,67.40
2019-04-16T03:02:39.956Z,67.02
2019-04-16T03:03:39.950Z,66.17
2019-04-16T03:04:39.916Z,65.88
2019-04-16T03:05:39.903Z,66.17
2019-04-16T03:06:39.884Z,66.46
2019-04-16T03:07:39.892Z,66.46
2019-04-16T03:08:39.843Z,66.27
2019-04-16T03:09:40.919Z,66.36
2019-04-16T03:10:41.884Z,66.83
2019-04-16T03:11:39.798Z,66.83
2019-04-16T03:12:39.798Z,67.02
2019-04-16T03:13:39.753Z,66.46
2019-04-16T03:14:39.745Z,66.46
2019-04-16T03:15:39.730Z,66.46
2019-04-16T03:16:39.722Z,65.88
2019-04-16T03:17:42.756Z,66.36
2019-04-16T03:18:39.667Z,66.64
2019-04-16T03:19:39.702Z,67.31
2019-04-16T03:20:39.630Z,67.31
2019-04-16T03:21:39.613Z,67.40
2019-04-16T03:22:39.595Z,67.02
2019-04-16T03:23:39.587Z,66.83
2019-04-16T03:24:40.184Z,66.93
2019-04-16T03:25:41.413Z,67.40
2019-04-16T03:26:39.523Z,67.40
2019-04-16T03:27:39.508Z,67.40
2019-04-16T03:28:39.494Z,67.79
2019-04-16T03:29:39.498Z,68.07
2019-04-16T03:30:42.115Z,68.07
2019-04-16T03:31:39.443Z,68.35
2019-04-16T03:32:39.420Z,68.16
2019-04-16T03:33:48.542Z,67.97
2019-04-16T03:34:39.423Z,68.16
2019-04-16T03:35:39.366Z,68.07
2019-04-16T03:36:39.354Z,68.35
2019-04-16T03:37:39.331Z,68.16
2019-04-16T03:38:41.982Z,67.79
2019-04-16T03:39:43.777Z,68.16
2019-04-16T03:40:39.286Z,68.35
2019-04-16T03:41:39.269Z,68.54
2019-04-16T03:42:39.248Z,68.64
2019-04-16T03:43:39.222Z,68.44
2019-04-16T03:44:39.203Z,68.83
2019-04-16T03:45:40.451Z,68.92
2019-04-16T03:46:40.211Z,68.73
2019-04-16T03:47:39.150Z,68.44
2019-04-16T03:48:39.135Z,67.79
2019-04-16T03:49:39.131Z,67.59
2019-04-16T03:50:39.103Z,67.79
2019-04-16T03:51:39.086Z,67.50
2019-04-16T03:52:40.877Z,67.69
2019-04-16T03:53:39.051Z,67.21
2019-04-16T03:54:39.040Z,67.40
2019-04-16T03:55:39.023Z,67.69
2019-04-16T03:56:39.029Z,67.50
2019-04-16T03:57:38.974Z,67.59
2019-04-16T03:58:39.382Z,67.88
2019-04-16T03:59:40.100Z,67.59
2019-04-16T04:00:43.884Z,67.50
2019-04-16T04:01:38.929Z,67.69
2019-04-16T04:02:38.898Z,67.40
2019-04-16T04:03:38.884Z,67.79
2019-04-16T04:04:38.848Z,67.79
2019-04-16T04:05:38.843Z,67.69
2019-04-16T04:06:39.623Z,67.69
2019-04-16T04:07:43.810Z,67.59
2019-04-16T04:08:38.789Z,67.88
2019-04-16T04:09:38.775Z,68.16
2019-04-16T04:10:38.753Z,67.88
2019-04-16T04:11:41.176Z,68.07
2019-04-16T04:12:38.737Z,68.26
2019-04-16T04:13:38.695Z,68.26
2019-04-16T04:14:38.703Z,68.54
2019-04-16T04:15:38.659Z,68.54
2019-04-16T04:16:38.634Z,68.35
2019-04-16T04:17:39.595Z,67.69
2019-04-16T04:18:42.911Z,67.88
2019-04-16T04:19:38.584Z,68.26
2019-04-16T04:20:38.573Z,68.26
2019-04-16T04:21:38.555Z,68.44
2019-04-16T04:22:38.550Z,68.35
2019-04-16T04:23:38.514Z,68.26
2019-04-16T04:24:38.562Z,67.69
2019-04-16T04:25:38.482Z,67.69
2019-04-16T04:26:41.505Z,67.69
2019-04-16T04:27:38.454Z,67.59
2019-04-16T04:28:38.436Z,68.13
2019-04-16T04:29:38.442Z,68.79
2019-04-16T04:30:38.396Z,68.89
2019-04-16T04:31:38.371Z,68.60
2019-04-16T04:32:38.353Z,68.41
2019-04-16T04:34:38.353Z,69.36
2019-04-16T04:35:38.298Z,69.74
2019-04-16T04:36:38.279Z,69.65
2019-04-16T04:37:38.269Z,69.55
2019-04-16T04:38:38.436Z,68.89
2019-04-16T04:39:38.260Z,69.08
2019-04-16T04:40:44.834Z,69.17
2019-04-16T04:41:38.191Z,69.27
2019-04-16T04:42:38.174Z,68.51
2019-04-16T04:43:10.018Z,68.60
2019-04-16T04:43:38.161Z,68.92
2019-04-16T04:44:38.175Z,68.64
2019-04-16T04:45:40.881Z,68.98
2019-04-16T04:46:38.116Z,69.74
2019-04-16T04:47:38.083Z,69.17
2019-04-16T04:48:38.072Z,68.70
2019-04-16T04:49:38.080Z,69.55
2019-04-16T04:50:38.040Z,69.46
2019-04-16T04:51:42.485Z,69.27
2019-04-16T04:52:37.996Z,70.03
2019-04-16T04:53:37.978Z,70.03
2019-04-16T04:54:37.980Z,70.40
2019-04-16T04:55:37.943Z,70.98
2019-04-16T04:56:37.934Z,71.45
2019-04-16T04:57:37.928Z,71.73
2019-04-16T04:58:38.080Z,71.64
2019-04-16T04:59:37.898Z,72.11
2019-04-16T05:00:40.511Z,71.64
2019-04-16T05:01:37.906Z,71.55
2019-04-16T05:02:37.826Z,72.21
2019-04-16T05:03:37.797Z,72.59
2019-04-16T05:04:37.789Z,72.97
2019-04-16T05:05:37.767Z,72.88
2019-04-16T05:06:37.747Z,72.97
2019-04-16T05:07:37.754Z,72.30
2019-04-16T05:08:37.715Z,73.16
2019-04-16T05:09:37.687Z,73.44
2019-04-16T05:10:42.915Z,73.54
2019-04-16T05:11:37.686Z,73.44
2019-04-16T05:12:37.637Z,73.35
2019-04-16T05:13:37.618Z,73.82
2019-04-16T05:14:37.610Z,74.20
2019-04-16T05:15:37.590Z,74.20
2019-04-16T05:16:37.592Z,74.01
2019-04-16T05:17:38.423Z,73.63
2019-04-16T05:18:38.295Z,74.11
2019-04-16T05:19:37.512Z,72.97
2019-04-16T05:20:37.501Z,73.25
2019-04-16T05:21:37.497Z,73.72
2019-04-16T05:22:37.485Z,73.72
2019-04-16T05:23:37.791Z,73.63
2019-04-16T05:24:37.784Z,73.92
2019-04-16T05:25:37.404Z,74.49
2019-04-16T05:26:37.428Z,74.49
2019-04-16T05:27:40.119Z,74.11
2019-04-16T05:28:37.348Z,73.82
2019-04-16T05:29:37.338Z,73.63
2019-04-16T05:30:37.314Z,73.82
2019-04-16T05:31:37.302Z,74.20
2019-04-16T05:32:37.308Z,74.20
2019-04-16T05:33:38.104Z,73.44
2019-04-16T05:34:38.260Z,71.92
2019-04-16T05:35:38.533Z,72.21
2019-04-16T05:36:40.088Z,73.25
2019-04-16T05:37:37.210Z,73.63
2019-04-16T05:38:37.208Z,73.76
2019-04-16T05:39:37.159Z,73.67
2019-04-16T05:40:37.132Z,72.72
2019-04-16T05:41:37.121Z,73.29
2019-04-16T05:42:37.113Z,72.53
2019-04-16T05:43:37.106Z,72.44
2019-04-16T05:44:37.062Z,72.81
2019-04-16T05:45:37.879Z,73.38
2019-04-16T05:46:38.367Z,73.38
2019-04-16T05:47:37.014Z,73.96
2019-04-16T05:48:37.032Z,73.96
2019-04-16T05:49:36.974Z,74.24
2019-04-16T05:50:36.960Z,74.52
2019-04-16T05:51:36.938Z,74.81
2019-04-16T05:52:36.925Z,75.09
2019-04-16T05:53:37.415Z,75.19
2019-04-16T05:54:36.885Z,74.81
2019-04-16T05:55:36.864Z,74.15
2019-04-16T05:56:36.918Z,74.33
2019-04-16T05:57:36.832Z,74.52
2019-04-16T05:58:36.818Z,74.62
2019-04-16T05:59:36.834Z,74.62
2019-04-16T06:00:38.621Z,74.15
2019-04-16T06:01:36.780Z,73.96
2019-04-16T06:02:36.762Z,73.76
2019-04-16T06:03:36.731Z,73.86
2019-04-16T06:04:36.731Z,74.24
2019-04-16T06:05:36.696Z,74.33
2019-04-16T06:06:36.721Z,74.62
2019-04-16T06:07:37.960Z,74.71
2019-04-16T06:08:40.630Z,74.62
2019-04-16T06:09:36.652Z,73.99
2019-04-16T06:10:36.598Z,73.23
2019-04-16T06:11:36.723Z,73.90
2019-04-16T06:12:39.622Z,73.99
2019-04-16T06:13:36.546Z,73.90
2019-04-16T06:14:36.563Z,74.66
2019-04-16T06:15:36.510Z,75.23
2019-04-16T06:16:36.503Z,75.89
2019-04-16T06:17:36.477Z,75.60
2019-04-16T06:18:38.046Z,75.04
2019-04-16T06:19:36.446Z,75.42
2019-04-16T06:20:36.425Z,74.75
2019-04-16T06:21:36.409Z,74.27
2019-04-16T06:22:36.396Z,73.80
2019-04-16T06:23:36.373Z,72.95
2019-04-16T06:24:36.384Z,72.85
2019-04-16T06:25:40.990Z,73.23
2019-04-16T06:26:36.335Z,73.90
2019-04-16T06:27:36.301Z,73.99
2019-04-16T06:28:36.289Z,72.47
2019-04-16T06:29:36.289Z,71.90
2019-04-16T06:30:36.304Z,72.41
2019-04-16T06:31:39.150Z,73.46
2019-04-16T06:32:36.223Z,72.99
2019-04-16T06:33:36.207Z,71.56
2019-04-16T06:34:36.181Z,71.66
2019-04-16T06:35:42.966Z,71.84
2019-04-16T06:36:36.169Z,71.84
2019-04-16T06:37:36.134Z,71.46
2019-04-16T06:38:36.118Z,72.79
2019-04-16T06:39:36.096Z,73.36
2019-04-16T06:40:36.075Z,69.94
2019-04-16T06:41:41.806Z,68.33
2019-04-16T06:42:38.454Z,68.04
2019-04-16T06:43:36.024Z,68.80
2019-04-16T06:44:36.010Z,70.13
2019-04-16T06:45:37.151Z,70.99
2019-04-16T06:46:39.427Z,68.52
2019-04-16T06:47:35.956Z,68.71
2019-04-16T06:48:35.939Z,68.99
2019-04-16T06:49:35.929Z,69.37
2019-04-16T06:50:39.920Z,67.76
2019-04-16T06:51:35.920Z,69.18
2019-04-16T06:52:35.901Z,68.99
2019-04-16T06:53:35.860Z,69.37
2019-04-16T06:54:35.837Z,68.42
2019-04-16T06:55:36.265Z,68.61
2019-04-16T06:56:37.353Z,69.37
2019-04-16T06:57:35.813Z,68.99
2019-04-16T06:58:50.145Z,69.31
2019-04-16T06:59:35.747Z,69.60
2019-04-16T07:00:35.735Z,70.17
2019-04-16T07:01:37.437Z,71.22
2019-04-16T07:02:37.494Z,70.17
2019-04-16T07:03:35.685Z,69.21
2019-04-16T07:04:35.665Z,68.46
2019-04-16T07:05:35.664Z,68.27
2019-04-16T07:06:36.292Z,68.17
2019-04-16T07:07:39.850Z,68.74
2019-04-16T07:08:38.077Z,68.07
2019-04-16T07:09:41.795Z,68.07
2019-04-16T07:10:44.474Z,68.30
2019-04-16T07:11:35.548Z,67.73
2019-04-16T07:12:38.507Z,67.35
2019-04-16T07:13:35.563Z,67.54
2019-04-16T07:14:36.149Z,65.83
2019-04-16T07:15:35.599Z,65.45
2019-04-16T07:16:35.469Z,67.25
2019-04-16T07:17:35.442Z,67.63
2019-04-16T07:18:38.229Z,68.40
2019-04-16T07:19:35.452Z,69.15
2019-04-16T07:20:35.400Z,70.01
2019-04-16T07:21:35.386Z,68.40
2019-04-16T07:22:35.358Z,67.44
2019-04-16T07:23:35.425Z,68.30
2019-04-16T07:24:37.158Z,68.40
2019-04-16T07:25:40.334Z,68.11
2019-04-16T07:26:38.595Z,67.63
2019-04-16T07:27:38.364Z,67.25
2019-04-16T07:28:35.290Z,66.30
2019-04-16T07:29:35.328Z,66.81
2019-04-16T07:30:38.622Z,66.39
2019-04-16T07:31:35.305Z,66.78
2019-04-16T07:32:35.198Z,66.14
2019-04-16T07:33:35.184Z,65.29
2019-04-16T07:34:35.209Z,65.35
2019-04-16T07:35:35.149Z,65.48
2019-04-16T07:36:35.133Z,65.58
2019-04-16T07:37:35.125Z,66.43
2019-04-16T07:38:35.976Z,66.14
2019-04-16T07:39:37.367Z,64.90
2019-04-16T07:40:35.066Z,65.00
2019-04-16T07:41:35.056Z,64.90
2019-04-16T07:42:35.035Z,65.19
2019-04-16T07:43:35.021Z,65.77
2019-04-16T07:44:36.543Z,66.14
2019-04-16T07:45:34.989Z,65.10
2019-04-16T07:46:34.979Z,65.00
2019-04-16T07:47:34.966Z,65.38
2019-04-16T07:48:34.942Z,65.29
2019-04-16T07:49:34.951Z,64.53
2019-04-16T07:50:34.916Z,64.43
2019-04-16T07:51:36.140Z,64.53
2019-04-16T07:52:34.875Z,62.91
2019-04-16T07:53:34.865Z,62.81
2019-04-16T07:54:34.848Z,63.32
2019-04-16T07:55:34.832Z,63.60
2019-04-16T07:56:34.820Z,62.85
2019-04-16T07:57:34.846Z,62.46
2019-04-16T07:58:34.796Z,63.80
2019-04-16T07:59:34.767Z,62.46
2019-04-16T08:00:40.317Z,62.75
2019-04-16T08:01:34.739Z,63.04
2019-04-16T08:02:34.721Z,61.70
2019-04-16T08:03:34.712Z,61.90
2019-04-16T08:04:35.725Z,62.21
2019-04-16T08:05:37.848Z,60.97
2019-04-16T08:06:34.660Z,62.12
2019-04-16T08:07:34.654Z,62.97
2019-04-16T08:08:34.649Z,62.21
2019-04-16T08:09:34.619Z,61.73
2019-04-16T08:10:34.604Z,60.43
2019-04-16T08:11:34.600Z,60.33
2019-04-16T08:12:34.597Z,59.76
2019-04-16T08:13:34.596Z,58.75
2019-04-16T08:14:34.542Z,58.14
2019-04-16T08:15:34.527Z,57.28
2019-04-16T08:16:46.634Z,57.67
2019-04-16T08:17:34.526Z,58.33
2019-04-16T08:18:34.496Z,59.19
2019-04-16T08:19:37.157Z,58.65
2019-04-16T08:20:34.479Z,58.17
2019-04-16T08:21:34.448Z,57.41
2019-04-16T08:22:34.427Z,58.26
2019-04-16T08:23:34.416Z,58.17
2019-04-16T08:24:34.405Z,56.65
2019-04-16T08:25:34.984Z,57.03
2019-04-16T08:26:34.379Z,56.55
2019-04-16T08:27:34.384Z,55.15
2019-04-16T08:28:34.347Z,56.29
2019-04-16T08:29:34.327Z,55.84
2019-04-16T08:30:37.276Z,54.99
2019-04-16T08:31:34.304Z,53.36
2019-04-16T08:32:34.330Z,54.03
2019-04-16T08:33:34.271Z,54.06
2019-04-16T08:34:34.260Z,53.49
2019-04-16T08:35:34.255Z,52.91
2019-04-16T08:36:34.237Z,52.17
2019-04-16T08:37:48.044Z,52.53
2019-04-16T08:38:34.990Z,51.64
2019-04-16T08:39:36.872Z,52.43
2019-04-16T08:40:34.181Z,52.15
2019-04-16T08:41:34.162Z,52.50
2019-04-16T08:42:44.438Z,52.53
2019-04-16T08:43:34.135Z,52.34
2019-04-16T08:44:35.776Z,52.81
2019-04-16T08:45:39.135Z,53.32
2019-04-16T08:46:34.099Z,50.93
2019-04-16T08:47:34.085Z,50.67
2019-04-16T08:48:34.100Z,50.41
2019-04-16T08:49:34.056Z,48.97
2019-04-16T08:50:34.031Z,46.61
2019-04-16T08:51:36.973Z,46.70
2019-04-16T08:52:34.010Z,46.82
2019-04-16T08:53:35.527Z,46.15
2019-04-16T08:54:34.015Z,45.57
2019-04-16T08:55:33.972Z,45.84
2019-04-16T08:56:33.959Z,45.72
2019-04-16T08:57:33.953Z,47.47
2019-04-16T08:58:35.700Z,47.47
2019-04-16T08:59:33.985Z,46.12
2019-04-16T09:00:33.917Z,46.80
2019-04-16T09:01:33.894Z,48.23
2019-04-16T09:02:33.883Z,47.66
2019-04-16T09:03:33.869Z,47.18
2019-04-16T09:04:34.669Z,45.65
2019-04-16T09:05:33.848Z,45.53
2019-04-16T09:06:33.834Z,46.67
2019-04-16T09:07:33.821Z,47.42
2019-04-16T09:08:33.815Z,48.95
2019-04-16T09:09:33.800Z,50.09
2019-04-16T09:10:33.807Z,49.62
2019-04-16T09:11:35.473Z,49.62
2019-04-16T09:12:33.875Z,48.85
2019-04-16T09:13:33.742Z,50.00
2019-04-16T09:14:33.760Z,49.23
2019-04-16T09:15:33.715Z,49.74
2019-04-16T09:16:33.707Z,49.35
2019-04-16T09:17:33.716Z,49.66
2019-04-16T09:18:33.715Z,49.09
2019-04-16T09:19:33.717Z,47.97
2019-04-16T09:20:34.727Z,48.25
2019-04-16T09:21:33.674Z,47.22
2019-04-16T09:22:47.888Z,44.73
2019-04-16T09:23:33.627Z,45.04
2019-04-16T09:24:33.607Z,43.90
2019-04-16T09:25:33.658Z,43.32
2019-04-16T09:26:33.586Z,42.65
2019-04-16T09:27:34.323Z,42.94
2019-04-16T09:28:33.612Z,42.96
2019-04-16T09:29:33.555Z,42.60
2019-04-16T09:30:33.539Z,42.52
2019-04-16T09:31:33.559Z,41.00
2019-04-16T09:32:33.516Z,38.60
2019-04-16T09:33:34.448Z,38.22
2019-04-16T09:34:35.663Z,38.99
2019-04-16T09:35:33.493Z,40.35
2019-04-16T09:36:33.540Z,39.70
2019-04-16T09:37:35.796Z,38.16
2019-04-16T09:38:33.450Z,38.35
2019-04-16T09:39:33.455Z,37.39
2019-04-16T09:40:33.597Z,35.76
2019-04-16T09:41:33.604Z,36.51
2019-04-16T09:42:33.427Z,36.88
2019-04-16T09:43:33.412Z,38.02
2019-04-16T09:44:35.361Z,38.24
2019-04-16T09:45:33.797Z,39.11
2019-04-16T09:46:50.458Z,38.62
2019-04-16T09:47:33.486Z,38.43
2019-04-16T09:48:34.815Z,38.72
2019-04-16T09:49:34.375Z,38.24
2019-04-16T09:50:33.350Z,39.29
2019-04-16T09:51:33.352Z,38.53
2019-04-16T09:52:33.338Z,38.91
2019-04-16T09:53:34.535Z,39.97
2019-04-16T09:54:33.332Z,40.06
2019-04-16T09:55:33.318Z,39.29
2019-04-16T09:56:33.328Z,38.34
2019-04-16T09:57:33.300Z,38.43
2019-04-16T09:58:34.866Z,38.24
2019-04-16T09:59:33.291Z,38.07
2019-04-16T10:00:33.283Z,37.01
2019-04-16T10:01:33.294Z,36.72
2019-04-16T10:02:33.261Z,37.97
2019-04-16T10:03:33.257Z,38.24
2019-04-16T10:04:33.254Z,37.85
2019-04-16T10:05:33.253Z,38.91
2019-04-16T10:06:33.260Z,38.04
2019-04-16T10:07:33.255Z,37.77
2019-04-16T10:08:33.229Z,37.10
2019-04-16T10:09:33.216Z,37.59
2019-04-16T10:10:33.210Z,37.22
2019-04-16T10:11:35.732Z,37.60
2019-04-16T10:12:33.229Z,37.91
2019-04-16T10:13:36.034Z,37.93
2019-04-16T10:14:33.209Z,35.91
2019-04-16T10:15:33.182Z,35.62
2019-04-16T10:16:33.201Z,36.66
2019-04-16T10:17:33.224Z,35.89
2019-04-16T10:18:35.112Z,36.77
2019-04-16T10:19:33.216Z,35.62
2019-04-16T10:20:33.147Z,34.27
2019-04-16T10:21:33.158Z,35.35
2019-04-16T10:22:33.133Z,35.73
2019-04-16T10:23:33.161Z,35.25
2019-04-16T10:24:33.138Z,35.06
2019-04-16T10:25:33.601Z,35.65
2019-04-16T10:26:33.113Z,35.27
2019-04-16T10:27:33.118Z,34.03
2019-04-16T10:28:34.002Z,33.55
2019-04-16T10:29:33.103Z,33.47
2019-04-16T10:30:33.097Z,32.99
2019-04-16T10:31:33.130Z,30.96
2019-04-16T10:32:33.113Z,32.10
2019-04-16T10:33:33.109Z,33.94
2019-04-16T10:34:36.161Z,35.58
2019-04-16T10:35:33.070Z,34.70
2019-04-16T10:36:37.091Z,33.94
2019-04-16T10:37:33.060Z,33.44
2019-04-16T10:38:33.080Z,33.73
2019-04-16T10:39:33.044Z,35.25
2019-04-16T10:40:33.073Z,34.09
2019-04-16T10:41:33.050Z,33.79
2019-04-16T10:42:33.036Z,34.17
2019-04-16T10:43:43.820Z,33.89
2019-04-16T10:44:33.015Z,34.09
2019-04-16T10:45:33.047Z,33.71
2019-04-16T10:46:33.016Z,31.98
2019-04-16T10:47:35.630Z,31.48
2019-04-16T10:48:33.023Z,32.92
2019-04-16T10:49:33.027Z,33.79
2019-04-16T10:50:32.988Z,34.96
2019-04-16T10:51:33.006Z,32.65
2019-04-16T10:52:32.974Z,33.91
2019-04-16T10:53:33.045Z,34.27
2019-04-16T10:54:33.799Z,32.54
2019-04-16T10:55:32.956Z,33.10
2019-04-16T10:56:32.973Z,33.67
2019-04-16T10:57:32.954Z,34.84
2019-04-16T10:58:32.934Z,33.89
2019-04-16T10:59:32.952Z,31.87
2019-04-16T11:00:32.925Z,31.08
2019-04-16T11:01:35.019Z,33.18
2019-04-16T11:02:32.922Z,32.10
2019-04-16T11:03:34.770Z,32.87
2019-04-16T11:04:32.972Z,33.54
2019-04-16T11:05:32.904Z,33.64
2019-04-16T11:06:32.889Z,34.41
2019-04-16T11:07:32.927Z,34.22
2019-04-16T11:08:32.876Z,33.93
2019-04-16T11:09:32.991Z,34.30
2019-04-16T11:10:32.976Z,33.82
2019-04-16T11:11:32.998Z,34.30
2019-04-16T11:12:33.159Z,34.41
2019-04-16T11:13:33.109Z,34.53
2019-04-16T11:14:32.838Z,33.20
2019-04-16T11:15:32.818Z,33.13
2019-04-16T11:16:35.895Z,32.86
2019-04-16T11:17:32.813Z,31.43
2019-04-16T11:18:32.837Z,30.58
2019-04-16T11:19:32.790Z,30.69
2019-04-16T11:20:32.795Z,28.64
2019-04-16T11:21:32.805Z,29.02
2019-04-16T11:22:32.814Z,29.29
2019-04-16T11:23:32.771Z,29.86
2019-04-16T11:24:32.759Z,32.26
2019-04-16T11:25:32.754Z,33.42
2019-04-16T11:26:32.771Z,33.13
2019-04-16T11:27:32.739Z,31.69
2019-04-16T11:28:32.738Z,32.65
2019-04-16T11:29:32.733Z,33.50
2019-04-16T11:30:32.731Z,34.08
2019-04-16T11:31:32.758Z,34.35
2019-04-16T11:32:32.734Z,34.25
2019-04-16T11:33:32.715Z,34.33
2019-04-16T11:34:32.699Z,34.92
2019-04-16T11:35:32.703Z,35.31
2019-04-16T11:36:32.716Z,35.52
2019-04-16T11:37:36.111Z,35.62
2019-04-16T11:38:32.678Z,36.11
2019-04-16T11:39:32.700Z,34.38
2019-04-16T11:40:32.672Z,34.19
2019-04-16T11:41:32.652Z,34.58
2019-04-16T11:42:32.684Z,35.85
2019-04-16T11:43:32.649Z,34.88
2019-04-16T11:44:32.639Z,34.69
2019-04-16T11:45:32.635Z,32.76
2019-04-16T11:46:32.664Z,31.99
2019-04-16T11:47:34.148Z,32.86
2019-04-16T11:48:37.220Z,33.73
2019-04-16T11:49:32.645Z,32.65
2019-04-16T11:50:35.827Z,33.42
2019-04-16T11:51:32.846Z,34.17
2019-04-16T11:52:32.582Z,33.12
2019-04-16T11:53:32.620Z,33.59
2019-04-16T11:54:32.581Z,34.94
2019-04-16T11:55:32.568Z,36.41
2019-04-16T11:56:32.608Z,36.31
2019-04-16T11:57:33.286Z,34.50
2019-04-16T11:58:32.629Z,33.25
2019-04-16T11:59:32.540Z,33.25
2019-04-16T12:00:32.535Z,34.40
2019-04-16T12:01:32.527Z,33.84
2019-04-16T12:02:32.527Z,32.43
2019-04-16T12:03:35.188Z,32.24
2019-04-16T12:04:32.558Z,31.88
2019-04-16T12:05:32.535Z,30.35
2019-04-16T12:06:32.533Z,27.72
2019-04-16T12:07:32.495Z,28.30
2019-04-16T12:08:32.513Z,29.47
2019-04-16T12:09:32.485Z,28.31
2019-04-16T12:10:32.493Z,28.33
2019-04-16T12:11:32.527Z,28.64
2019-04-16T12:12:32.490Z,28.36
2019-04-16T12:13:32.484Z,27.03
2019-04-16T12:14:34.732Z,26.73
2019-04-16T12:15:32.468Z,26.82
2019-04-16T12:16:32.536Z,26.43
2019-04-16T12:17:36.142Z,26.45
2019-04-16T12:18:32.531Z,25.49
2019-04-16T12:19:32.557Z,25.98
2019-04-16T12:20:32.458Z,25.38
2019-04-16T12:21:32.518Z,25.95
2019-04-16T12:22:32.459Z,26.63
2019-04-16T12:23:32.476Z,28.26
2019-04-16T12:24:32.462Z,28.86
2019-04-16T12:25:32.488Z,29.02
2019-04-16T12:26:32.453Z,27.85
2019-04-16T12:27:32.459Z,29.02
2019-04-16T12:28:32.536Z,28.75
2019-04-16T12:29:32.451Z,28.18
2019-04-16T12:30:32.434Z,28.09
2019-04-16T12:31:32.513Z,26.84
2019-04-16T12:32:32.458Z,26.06
2019-04-16T12:33:32.447Z,26.54
2019-04-16T12:34:32.434Z,25.95
2019-04-16T12:35:34.690Z,26.04
2019-04-16T12:36:32.423Z,26.62
2019-04-16T12:37:37.323Z,27.39
2019-04-16T12:38:32.438Z,28.18
2019-04-16T12:39:35.557Z,27.42
2019-04-16T12:40:32.427Z,26.17
2019-04-16T12:41:32.446Z,25.51
2019-04-16T12:42:32.535Z,25.99
2019-04-16T12:43:32.445Z,24.26
2019-04-16T12:44:44.721Z,23.68
2019-04-16T12:45:32.452Z,23.66
2019-04-16T12:46:32.470Z,24.73
2019-04-16T12:47:32.521Z,25.98
2019-04-16T12:48:32.434Z,26.46
2019-04-16T12:49:32.460Z,26.64
2019-04-16T12:50:32.459Z,25.95
2019-04-16T12:51:32.425Z,26.61
2019-04-16T12:52:32.445Z,27.57